createdAt,value
2019-05-15T00:01:28.570Z,3.10
2019-05-15T00:03:58.547Z,3.10
2019-05-15T00:06:28.546Z,3.10
2019-05-15T00:08:58.820Z,3.00
2019-05-15T00:11:28.741Z,3.00
2019-05-15T00:13:58.784Z,2.90
2019-05-15T00:16:28.828Z,2.90
2019-05-15T00:18:58.900Z,2.80
2019-05-15T00:21:28.633Z,2.70
2019-05-15T00:23:58.506Z,2.70
2019-05-15T00:26:26.313Z,2.70
2019-05-15T00:29:07.626Z,2.60
2019-05-15T00:31:24.472Z,2.70
2019-05-15T00:33:52.701Z,2.60
2019-05-15T00:36:20.911Z,2.60
2019-05-15T00:38:49.101Z,2.60
2019-05-15T00:41:18.493Z,2.50
2019-05-15T00:43:49.205Z,2.50
2019-05-15T00:46:18.333Z,2.50
2019-05-15T00:48:48.765Z,2.50
2019-05-15T00:51:19.280Z,2.40
2019-05-15T00:53:48.333Z,2.30
2019-05-15T00:56:19.003Z,2.30
2019-05-15T00:58:48.207Z,2.40
2019-05-15T01:01:19.064Z,2.30
2019-05-15T01:03:46.416Z,2.30
2019-05-15T01:06:14.615Z,2.30
2019-05-15T01:08:42.837Z,2.30
2019-05-15T01:11:11.048Z,2.30
2019-05-15T01:13:39.256Z,2.30
2019-05-15T01:16:09.104Z,2.30
2019-05-15T01:18:38.498Z,2.20
2019-05-15T01:21:08.367Z,2.10
2019-05-15T01:23:38.819Z,2.10
2019-05-15T01:26:08.280Z,2.00
2019-05-15T01:28:38.396Z,1.90
2019-05-15T01:31:08.535Z,1.90
2019-05-15T01:33:38.807Z,1.70
2019-05-15T01:36:08.513Z,1.70
2019-05-15T01:38:38.634Z,1.70
2019-05-15T01:41:06.410Z,1.60
2019-05-15T01:43:34.617Z,1.60
2019-05-15T01:46:02.840Z,1.50
2019-05-15T01:48:31.055Z,1.50
2019-05-15T01:50:59.258Z,1.60
2019-05-15T01:53:29.104Z,1.60
2019-05-15T01:55:58.884Z,1.80
2019-05-15T01:58:28.782Z,1.90
2019-05-15T02:00:58.992Z,2.10
2019-05-15T02:03:28.926Z,2.10
2019-05-15T02:05:58.680Z,2.20
2019-05-15T02:08:28.670Z,2.20
2019-05-15T02:10:58.829Z,2.20
2019-05-15T02:13:28.230Z,2.20
2019-05-15T02:15:58.752Z,2.20
2019-05-15T02:18:28.547Z,2.20
2019-05-15T02:20:58.689Z,2.20
2019-05-15T02:23:28.074Z,2.20
2019-05-15T02:25:58.727Z,2.10
2019-05-15T02:28:28.731Z,2.00
2019-05-15T02:30:58.840Z,2.00
2019-05-15T02:33:29.788Z,2.00
2019-05-15T02:35:56.293Z,1.90
2019-05-15T02:38:24.499Z,1.80
2019-05-15T02:40:52.720Z,1.80
2019-05-15T02:43:20.929Z,1.80
2019-05-15T02:45:50.910Z,1.70
2019-05-15T02:48:19.918Z,1.60
2019-05-15T02:50:50.115Z,1.60
2019-05-15T02:53:19.066Z,1.50
2019-05-15T02:55:49.492Z,1.50
2019-05-15T02:58:21.353Z,1.50
2019-05-15T03:00:52.893Z,1.50
2019-05-15T03:03:20.008Z,1.60
2019-05-15T03:05:49.849Z,1.50
2019-05-15T03:08:19.579Z,1.50
2019-05-15T03:10:49.759Z,1.50
2019-05-15T03:13:18.914Z,1.60
2019-05-15T03:15:48.935Z,1.60
2019-05-15T03:18:19.489Z,1.60
2019-05-15T03:20:50.007Z,1.80
2019-05-15T03:23:19.667Z,1.80
2019-05-15T03:25:49.095Z,1.90
2019-05-15T03:28:19.132Z,2.00
2019-05-15T03:33:25.330Z,2.00
2019-05-15T03:35:46.411Z,1.90
2019-05-15T03:38:14.625Z,1.90
2019-05-15T03:40:42.822Z,1.80
2019-05-15T03:43:11.051Z,1.70
2019-05-15T03:45:40.360Z,1.70
2019-05-15T03:48:09.557Z,1.80
2019-05-15T03:50:40.269Z,1.80
2019-05-15T03:53:10.102Z,1.80
2019-05-15T03:55:40.393Z,1.70
2019-05-15T03:58:09.923Z,1.60
2019-05-15T04:00:39.465Z,1.50
2019-05-15T04:03:14.160Z,1.40
2019-05-15T04:05:42.386Z,1.30
2019-05-15T04:08:11.351Z,1.20
2019-05-15T04:10:40.353Z,1.20
2019-05-15T04:13:09.651Z,1.20
2019-05-15T04:15:39.602Z,1.10
2019-05-15T04:18:09.334Z,1.10
2019-05-15T04:20:40.560Z,1.10
2019-05-15T04:23:10.054Z,1.10
2019-05-15T04:25:39.124Z,1.10
2019-05-15T04:28:09.628Z,1.10
2019-05-15T04:30:39.202Z,1.10
2019-05-15T04:33:09.359Z,1.10
2019-05-15T04:35:39.902Z,1.20
2019-05-15T04:38:09.403Z,1.30
2019-05-15T04:40:39.610Z,1.30
2019-05-15T04:43:10.372Z,1.40
2019-05-15T04:45:39.158Z,1.40
2019-05-15T04:48:10.152Z,1.50
2019-05-15T04:50:40.003Z,1.50
2019-05-15T04:53:10.757Z,1.50
2019-05-15T04:55:40.436Z,1.60
2019-05-15T04:58:09.680Z,1.70
2019-05-15T05:00:51.482Z,1.70
2019-05-15T05:03:20.502Z,1.80
2019-05-15T05:05:50.101Z,1.90
2019-05-15T05:08:19.973Z,2.00
2019-05-15T05:10:48.955Z,2.20
2019-05-15T05:13:19.819Z,2.40
2019-05-15T05:15:50.059Z,2.60
2019-05-15T05:18:18.852Z,2.80
2019-05-15T05:20:48.485Z,3.00
2019-05-15T05:23:19.274Z,3.30
2019-05-15T05:25:49.158Z,3.50
2019-05-15T05:28:18.134Z,3.70
2019-05-15T05:30:48.264Z,3.90
2019-05-15T05:33:18.190Z,4.20
2019-05-15T05:35:48.546Z,4.30
2019-05-15T05:38:19.121Z,4.60
2019-05-15T05:40:49.571Z,4.80
2019-05-15T05:43:18.415Z,5.00
2019-05-15T05:45:49.102Z,5.10
2019-05-15T05:48:18.697Z,5.30
2019-05-15T05:50:49.150Z,5.50
2019-05-15T05:53:16.845Z,5.70
2019-05-15T05:55:45.062Z,5.80
2019-05-15T05:58:13.286Z,6.00
2019-05-15T06:00:44.093Z,6.20
2019-05-15T06:03:12.322Z,6.40
2019-05-15T06:05:40.523Z,6.50
2019-05-15T06:08:08.725Z,6.70
2019-05-15T06:10:38.642Z,6.80
2019-05-15T06:13:08.762Z,7.00
2019-05-15T06:15:37.976Z,7.10
2019-05-15T06:18:08.365Z,7.40
2019-05-15T06:20:36.386Z,7.60
2019-05-15T06:23:04.566Z,7.60
2019-05-15T06:25:32.786Z,7.70
2019-05-15T06:28:01.033Z,7.80
2019-05-15T06:30:30.754Z,7.90
2019-05-15T06:33:08.319Z,8.00
2019-05-15T06:35:31.276Z,8.20
2019-05-15T06:37:59.274Z,8.40
2019-05-15T06:40:28.922Z,8.50
2019-05-15T06:42:59.391Z,8.70
2019-05-15T06:45:28.505Z,8.80
2019-05-15T06:47:58.249Z,9.20
2019-05-15T06:50:32.068Z,9.70
2019-05-15T06:53:00.299Z,10.30
2019-05-15T06:55:28.934Z,10.90
2019-05-15T06:57:58.417Z,11.30
2019-05-15T07:00:28.361Z,12.10
2019-05-15T07:02:58.354Z,12.70
2019-05-15T07:05:29.327Z,13.40
2019-05-15T07:07:58.518Z,13.70
2019-05-15T07:10:28.790Z,13.60
2019-05-15T07:12:58.534Z,13.70
2019-05-15T07:15:27.852Z,13.70
2019-05-15T07:17:58.024Z,14.10
2019-05-15T07:20:28.461Z,14.10
2019-05-15T07:22:58.442Z,14.60
2019-05-15T07:25:26.096Z,14.80
2019-05-15T07:27:54.377Z,14.60
2019-05-15T07:30:24.264Z,14.90
2019-05-15T07:32:52.505Z,15.30
2019-05-15T07:35:23.912Z,15.90
2019-05-15T07:37:50.731Z,15.90
2019-05-15T07:40:19.477Z,15.60
2019-05-15T07:42:49.063Z,15.40
2019-05-15T07:45:19.819Z,16.20
2019-05-15T07:47:48.936Z,16.00
2019-05-15T07:50:19.627Z,16.40
2019-05-15T07:52:48.595Z,16.70
2019-05-15T07:55:18.523Z,17.10
2019-05-15T07:57:49.442Z,16.90
2019-05-15T08:00:18.813Z,17.00
2019-05-15T08:02:48.227Z,17.10
2019-05-15T08:05:18.278Z,17.60
2019-05-15T08:07:48.756Z,17.50
2019-05-15T08:10:18.262Z,17.60
2019-05-15T08:12:49.274Z,17.90
2019-05-15T08:15:18.546Z,17.70
2019-05-15T08:18:00.332Z,18.40
2019-05-15T08:20:18.347Z,18.80
2019-05-15T08:22:48.693Z,18.70
2019-05-15T08:25:30.548Z,18.10
2019-05-15T08:27:48.619Z,18.70
2019-05-15T08:30:18.366Z,18.80
2019-05-15T08:32:50.771Z,19.80
2019-05-15T08:35:18.897Z,20.50
2019-05-15T08:37:48.881Z,20.60
2019-05-15T08:40:17.901Z,20.50
2019-05-15T08:42:54.675Z,20.10
2019-05-15T08:45:18.830Z,20.50
2019-05-15T08:47:49.297Z,20.10
2019-05-15T08:50:18.262Z,21.00
2019-05-15T08:52:48.688Z,21.40
2019-05-15T08:55:16.598Z,21.30
2019-05-15T08:57:44.821Z,20.30
2019-05-15T09:00:13.034Z,20.60
2019-05-15T09:02:41.270Z,21.00
2019-05-15T09:05:09.463Z,20.80
2019-05-15T09:07:38.602Z,20.70
2019-05-15T09:10:09.679Z,20.80
2019-05-15T09:12:38.820Z,20.40
2019-05-15T09:15:09.151Z,20.60
2019-05-15T09:17:39.878Z,20.80
2019-05-15T09:20:08.161Z,20.90
2019-05-15T09:22:38.223Z,21.60
2019-05-15T09:25:08.863Z,20.90
2019-05-15T09:27:38.340Z,20.40
2019-05-15T09:30:10.100Z,20.30
2019-05-15T09:32:39.290Z,19.80
2019-05-15T09:35:08.421Z,19.60
2019-05-15T09:37:38.522Z,19.40
2019-05-15T09:40:08.809Z,19.40
2019-05-15T09:42:38.621Z,19.90
2019-05-15T09:45:08.942Z,19.90
2019-05-15T09:47:39.571Z,20.30
2019-05-15T09:50:08.480Z,19.70
2019-05-15T09:52:38.853Z,20.30
2019-05-15T09:55:08.591Z,20.00
2019-05-15T09:57:38.665Z,19.40
2019-05-15T10:00:09.330Z,20.70
2019-05-15T10:02:39.338Z,21.60
2019-05-15T10:05:10.977Z,21.80
2019-05-15T10:07:40.116Z,22.30
2019-05-15T10:10:08.750Z,21.80
2019-05-15T10:12:38.699Z,22.30
2019-05-15T10:15:11.200Z,21.80
2019-05-15T10:17:37.579Z,20.70
2019-05-15T10:20:08.946Z,20.20
2019-05-15T10:22:36.472Z,19.70
2019-05-15T10:25:08.289Z,20.10
2019-05-15T10:27:39.575Z,20.40
2019-05-15T10:30:09.099Z,20.20
2019-05-15T10:32:39.207Z,20.80
2019-05-15T10:35:24.054Z,20.20
2019-05-15T10:37:38.968Z,20.90
2019-05-15T10:40:09.770Z,20.70
2019-05-15T10:42:39.704Z,21.30
2019-05-15T10:45:08.554Z,21.40
2019-05-15T10:47:38.869Z,20.70
2019-05-15T10:50:09.654Z,21.60
2019-05-15T10:52:38.341Z,22.10
2019-05-15T10:55:09.138Z,22.20
2019-05-15T10:57:43.004Z,23.20
2019-05-15T11:00:07.965Z,22.00
2019-05-15T11:02:39.115Z,22.30
2019-05-15T11:05:09.353Z,22.00
2019-05-15T11:07:39.441Z,22.30
2019-05-15T11:10:08.602Z,23.60
2019-05-15T11:12:37.606Z,23.20
2019-05-15T11:15:10.891Z,23.40
2019-05-15T11:17:38.562Z,23.30
2019-05-15T11:20:08.351Z,22.40
2019-05-15T11:22:42.323Z,21.90
2019-05-15T11:25:09.954Z,21.30
2019-05-15T11:27:39.009Z,21.80
2019-05-15T11:30:07.924Z,21.40
2019-05-15T11:32:38.803Z,21.20
2019-05-15T11:35:08.313Z,21.40
2019-05-15T11:40:10.137Z,20.90
2019-05-15T11:42:39.445Z,21.70
2019-05-15T11:45:08.614Z,21.90
2019-05-15T11:47:39.603Z,21.70
2019-05-15T11:50:08.429Z,22.10
2019-05-15T11:52:40.144Z,21.50
2019-05-15T11:55:08.338Z,20.90
2019-05-15T11:57:43.571Z,20.40
2019-05-15T12:00:15.054Z,20.30
2019-05-15T12:02:38.427Z,20.50
2019-05-15T12:05:09.277Z,20.50
2019-05-15T12:07:38.184Z,20.90
2019-05-15T12:10:10.400Z,21.50
2019-05-15T12:12:38.479Z,22.00
2019-05-15T12:15:07.320Z,21.80
2019-05-15T12:17:35.785Z,22.30
2019-05-15T12:20:06.972Z,21.90
2019-05-15T12:22:34.944Z,21.10
2019-05-15T12:25:04.104Z,20.30
2019-05-15T12:27:32.299Z,20.70
2019-05-15T12:30:00.540Z,21.00
2019-05-15T12:37:28.631Z,22.40
2019-05-15T16:53:13.865Z,14.20
2019-05-15T16:55:42.132Z,14.10
2019-05-15T16:58:12.507Z,14.00
2019-05-15T17:00:40.718Z,13.90
2019-05-15T17:03:14.562Z,13.80
2019-05-15T17:05:38.971Z,13.70
2019-05-15T17:08:09.081Z,13.60
2019-05-15T17:10:38.746Z,13.50
2019-05-15T17:13:08.790Z,13.40
2019-05-15T17:15:38.471Z,13.20
2019-05-15T17:18:08.897Z,13.10
2019-05-15T17:20:36.794Z,13.20
2019-05-15T17:23:05.082Z,13.10
2019-05-15T17:25:33.327Z,13.00
2019-05-15T17:28:01.528Z,12.90
2019-05-15T17:30:30.058Z,12.80
2019-05-15T17:32:58.361Z,12.80
2019-05-15T17:35:27.755Z,12.80
2019-05-15T17:37:58.104Z,12.80
2019-05-15T17:40:28.233Z,12.70
2019-05-15T17:42:58.405Z,12.70
2019-05-15T17:45:28.145Z,12.60
2019-05-15T17:47:58.408Z,12.50
2019-05-15T17:50:28.172Z,12.50
2019-05-15T17:52:58.495Z,12.40
2019-05-15T17:55:27.480Z,12.30
2019-05-15T17:57:58.378Z,12.30
2019-05-15T18:00:28.436Z,12.20
2019-05-15T18:02:55.753Z,12.20
2019-05-15T18:05:25.269Z,12.10
2019-05-15T18:07:53.773Z,12.00
2019-05-15T18:10:22.031Z,12.00
2019-05-15T18:12:50.246Z,12.00
2019-05-15T18:15:18.468Z,11.90
2019-05-15T18:17:48.149Z,11.80
2019-05-15T18:20:29.191Z,11.80
2019-05-15T18:22:58.831Z,11.80
2019-05-15T18:25:26.479Z,11.70
2019-05-15T18:27:54.685Z,11.70
2019-05-15T18:30:22.975Z,11.60
2019-05-15T18:32:51.561Z,11.60
2019-05-15T18:35:19.775Z,11.50
2019-05-15T18:37:48.350Z,11.50
2019-05-15T18:40:18.780Z,11.40
2019-05-15T18:42:49.339Z,11.40
2019-05-15T18:45:18.249Z,11.40
2019-05-15T18:47:48.090Z,11.30
2019-05-15T18:50:16.608Z,11.30
2019-05-15T18:52:44.807Z,11.30
2019-05-15T18:55:13.010Z,11.20
2019-05-15T18:57:41.238Z,11.30
2019-05-15T19:00:10.385Z,11.20
2019-05-15T19:02:39.258Z,11.20
2019-05-15T19:05:08.165Z,11.20
2019-05-15T19:07:38.378Z,11.10
2019-05-15T19:10:08.727Z,11.20
2019-05-15T19:12:37.935Z,11.10
2019-05-15T19:15:09.211Z,11.10
2019-05-15T19:17:38.860Z,11.00
2019-05-15T19:20:08.423Z,11.00
2019-05-15T19:22:40.686Z,11.00
2019-05-15T19:25:08.859Z,11.00
2019-05-15T19:27:39.354Z,11.00
2019-05-15T19:30:08.460Z,10.90
2019-05-15T19:32:38.764Z,10.90
2019-05-15T19:35:08.033Z,10.90
2019-05-15T19:37:38.477Z,10.90
2019-05-15T19:40:06.854Z,10.90
2019-05-15T19:42:35.085Z,10.80
2019-05-15T19:45:03.864Z,10.80
2019-05-15T19:47:32.072Z,10.80
2019-05-15T19:50:00.293Z,10.80
2019-05-15T19:52:28.510Z,10.80
2019-05-15T19:54:57.769Z,10.80
2019-05-15T19:57:27.987Z,10.70
2019-05-15T19:59:58.167Z,10.70
2019-05-15T20:02:28.428Z,10.70
2019-05-15T20:04:58.190Z,10.70
2019-05-15T20:07:28.592Z,10.70
2019-05-15T20:09:58.303Z,10.70
2019-05-15T20:12:27.939Z,10.60
2019-05-15T20:14:58.329Z,10.60
2019-05-15T20:17:27.734Z,10.60
2019-05-15T20:19:58.096Z,10.60
2019-05-15T20:22:28.380Z,10.60
2019-05-15T20:24:58.747Z,10.50
2019-05-15T20:27:28.217Z,10.50
2019-05-15T20:29:56.547Z,10.50
2019-05-15T20:32:24.766Z,10.50
2019-05-15T20:34:52.996Z,10.50
2019-05-15T20:37:21.222Z,10.50
2019-05-15T20:39:49.502Z,10.40
2019-05-15T20:42:18.143Z,10.40
2019-05-15T20:44:48.634Z,10.40
2019-05-15T20:47:18.797Z,10.40
2019-05-15T20:49:48.509Z,10.40
2019-05-15T20:52:20.881Z,10.40
2019-05-15T20:54:48.073Z,10.40
2019-05-15T20:57:16.548Z,10.40
2019-05-15T20:59:44.917Z,10.40
2019-05-15T21:02:13.637Z,10.40
2019-05-15T21:04:41.882Z,10.40
2019-05-15T21:07:10.414Z,10.40
2019-05-15T21:09:39.412Z,10.30
2019-05-15T21:12:09.885Z,10.30
2019-05-15T21:14:40.027Z,10.30
2019-05-15T21:17:08.240Z,10.30
2019-05-15T21:19:38.552Z,10.20
2019-05-15T21:22:08.377Z,10.30
2019-05-15T21:24:37.830Z,10.20
2019-05-15T21:27:06.219Z,10.20
2019-05-15T21:29:34.467Z,10.10
2019-05-15T21:32:02.715Z,10.10
2019-05-15T21:34:37.581Z,10.10
2019-05-15T21:37:00.901Z,10.10
2019-05-15T21:39:30.198Z,10.00
2019-05-15T21:41:58.750Z,10.00
2019-05-15T21:44:29.205Z,10.00
2019-05-15T21:46:58.739Z,9.90
2019-05-15T21:49:28.135Z,9.90
2019-05-15T21:51:58.336Z,9.90
2019-05-15T21:54:28.163Z,9.90
2019-05-15T21:57:11.112Z,9.90
2019-05-15T21:59:27.843Z,9.90
2019-05-15T22:01:58.770Z,9.80
2019-05-15T22:04:28.141Z,9.80
2019-05-15T22:06:58.478Z,9.80
2019-05-15T22:09:26.171Z,9.70
2019-05-15T22:11:57.380Z,9.70
2019-05-15T22:14:24.789Z,9.70
2019-05-15T22:16:53.015Z,9.70
2019-05-15T22:19:21.241Z,9.60
2019-05-15T22:21:49.458Z,9.60
2019-05-15T22:24:18.187Z,9.60
2019-05-15T22:26:48.182Z,9.60
2019-05-15T22:29:17.786Z,9.60
2019-05-15T22:31:48.635Z,9.60
2019-05-15T22:34:18.381Z,9.50
2019-05-15T22:36:50.567Z,9.50
2019-05-15T22:39:18.784Z,9.50
2019-05-15T22:41:47.912Z,9.50
2019-05-15T22:44:18.990Z,9.40
2019-05-15T22:46:48.377Z,9.40
2019-05-15T22:49:18.288Z,9.40
2019-05-15T22:51:48.543Z,9.40
2019-05-15T22:54:16.254Z,9.30
2019-05-15T22:56:44.468Z,9.30
2019-05-15T22:59:12.706Z,9.20
2019-05-15T23:01:41.001Z,9.20
2019-05-15T23:04:09.235Z,9.20
2019-05-15T23:06:38.868Z,9.10
2019-05-15T23:09:07.370Z,9.00
2019-05-15T23:11:35.573Z,9.00
2019-05-15T23:14:03.792Z,9.00
2019-05-15T23:16:32.015Z,9.00
2019-05-15T23:19:00.493Z,9.00
2019-05-15T23:21:28.949Z,9.00
2019-05-15T23:23:57.197Z,9.00
2019-05-15T23:26:25.416Z,9.00
2019-05-15T23:28:53.618Z,9.10
2019-05-15T23:31:21.857Z,9.10
2019-05-15T23:33:50.057Z,9.10
2019-05-15T23:36:18.267Z,9.10
2019-05-15T23:38:47.967Z,9.10
2019-05-15T23:41:18.700Z,9.10
2019-05-15T23:43:48.239Z,9.10
2019-05-15T23:46:18.394Z,9.10
2019-05-15T23:48:48.524Z,9.10
2019-05-15T23:51:18.710Z,9.00
2019-05-15T23:53:48.339Z,9.00
2019-05-15T23:56:19.096Z,9.00
2019-05-15T23:58:46.375Z,9.00
